sensor_id;sensor_type;location;lat;lon;timestamp;temperature;humidity
45066;DHT22;30830;53.704;10.004;2023-06-10T00:01:53;14.30;99.90
45066;DHT22;30830;53.704;10.004;2023-06-10T00:04:23;14.30;99.90
45066;DHT22;30830;53.704;10.004;2023-06-10T00:06:49;14.20;99.90
45066;DHT22;30830;53.704;10.004;2023-06-10T00:09:15;14.20;99.90
45066;DHT22;30830;53.704;10.004;2023-06-10T00:11:41;14.20;99.90
45066;DHT22;30830;53.704;10.004;2023-06-10T00:14:07;14.20;99.90
45066;DHT22;30830;53.704;10.004;2023-06-10T00:16:33;14.20;99.90
45066;DHT22;30830;53.704;10.004;2023-06-10T00:19:00;14.20;99.90
45066;DHT22;30830;53.704;10.004;2023-06-10T00:21:31;14.20;99.90
45066;DHT22;30830;53.704;10.004;2023-06-10T00:24:03;14.10;99.90
45066;DHT22;30830;53.704;10.004;2023-06-10T00:26:29;14.10;99.90
45066;DHT22;30830;53.704;10.004;2023-06-10T00:28:55;14.10;99.90
45066;DHT22;30830;53.704;10.004;2023-06-10T00:31:20;14.10;99.90
45066;DHT22;30830;53.704;10.004;2023-06-10T00:33:46;14.00;99.90
45066;DHT22;30830;53.704;10.004;2023-06-10T00:36:11;14.00;99.90
45066;DHT22;30830;53.704;10.004;2023-06-10T00:38:37;13.90;99.90
45066;DHT22;30830;53.704;10.004;2023-06-10T00:41:02;13.90;99.90
45066;DHT22;30830;53.704;10.004;2023-06-10T00:43:28;13.90;99.90
45066;DHT22;30830;53.704;10.004;2023-06-10T00:45:54;13.80;99.90
45066;DHT22;30830;53.704;10.004;2023-06-10T00:48:19;13.70;99.90
45066;DHT22;30830;53.704;10.004;2023-06-10T00:50:46;13.80;99.90
45066;DHT22;30830;53.704;10.004;2023-06-10T00:53:12;13.70;99.90
45066;DHT22;30830;53.704;10.004;2023-06-10T00:55:38;13.70;99.90
45066;DHT22;30830;53.704;10.004;2023-06-10T00:58:04;13.70;99.90
45066;DHT22;30830;53.704;10.004;2023-06-10T01:00:30;13.70;99.90
45066;DHT22;30830;53.704;10.004;2023-06-10T01:02:55;13.60;99.90
45066;DHT22;30830;53.704;10.004;2023-06-10T01:05:23;13.60;99.90
45066;DHT22;30830;53.704;10.004;2023-06-10T01:07:50;13.60;99.90
45066;DHT22;30830;53.704;10.004;2023-06-10T01:10:40;13.60;99.90
45066;DHT22;30830;53.704;10.004;2023-06-10T01:13:09;13.50;99.90
45066;DHT22;30830;53.704;10.004;2023-06-10T01:15:37;13.50;99.90
45066;DHT22;30830;53.704;10.004;2023-06-10T01:18:05;13.40;99.90
45066;DHT22;30830;53.704;10.004;2023-06-10T01:20:34;13.40;99.90
45066;DHT22;30830;53.704;10.004;2023-06-10T01:23:02;13.40;99.90
45066;DHT22;30830;53.704;10.004;2023-06-10T01:25:31;13.30;99.90
45066;DHT22;30830;53.704;10.004;2023-06-10T01:33:25;13.30;99.90
45066;DHT22;30830;53.704;10.004;2023-06-10T01:35:53;13.20;99.90
45066;DHT22;30830;53.704;10.004;2023-06-10T01:38:19;13.20;99.90
45066;DHT22;30830;53.704;10.004;2023-06-10T01:40:47;13.20;99.90
45066;DHT22;30830;53.704;10.004;2023-06-10T01:43:13;13.20;99.90
45066;DHT22;30830;53.704;10.004;2023-06-10T01:45:39;13.20;99.90
45066;DHT22;30830;53.704;10.004;2023-06-10T01:48:05;13.20;99.90
45066;DHT22;30830;53.704;10.004;2023-06-10T01:50:30;13.20;99.90
45066;DHT22;30830;53.704;10.004;2023-06-10T01:52:57;13.10;99.90
45066;DHT22;30830;53.704;10.004;2023-06-10T01:55:23;13.00;99.90
45066;DHT22;30830;53.704;10.004;2023-06-10T01:57:48;13.00;99.90
45066;DHT22;30830;53.704;10.004;2023-06-10T02:00:14;13.00;99.90
45066;DHT22;30830;53.704;10.004;2023-06-10T02:02:40;13.00;99.90
45066;DHT22;30830;53.704;10.004;2023-06-10T02:05:06;13.00;99.90
45066;DHT22;30830;53.704;10.004;2023-06-10T02:07:32;12.90;99.90
45066;DHT22;30830;53.704;10.004;2023-06-10T02:09:57;12.90;99.90
45066;DHT22;30830;53.704;10.004;2023-06-10T02:12:23;12.90;99.90
45066;DHT22;30830;53.704;10.004;2023-06-10T02:14:48;12.80;99.90
45066;DHT22;30830;53.704;10.004;2023-06-10T02:17:14;12.80;99.90
45066;DHT22;30830;53.704;10.004;2023-06-10T02:19:40;12.80;99.90
45066;DHT22;30830;53.704;10.004;2023-06-10T02:22:08;12.70;99.90
45066;DHT22;30830;53.704;10.004;2023-06-10T02:24:36;12.70;99.90
45066;DHT22;30830;53.704;10.004;2023-06-10T02:27:03;12.70;99.90
45066;DHT22;30830;53.704;10.004;2023-06-10T02:29:33;12.60;99.90
45066;DHT22;30830;53.704;10.004;2023-06-10T02:31:58;12.50;99.90
45066;DHT22;30830;53.704;10.004;2023-06-10T02:34:24;12.60;99.90
45066;DHT22;30830;53.704;10.004;2023-06-10T02:36:49;12.50;99.90
45066;DHT22;30830;53.704;10.004;2023-06-10T02:39:16;12.50;99.90
45066;DHT22;30830;53.704;10.004;2023-06-10T02:41:42;12.50;99.90
45066;DHT22;30830;53.704;10.004;2023-06-10T02:44:07;12.50;99.90
45066;DHT22;30830;53.704;10.004;2023-06-10T02:46:33;12.50;99.90
45066;DHT22;30830;53.704;10.004;2023-06-10T02:48:58;12.50;99.90
45066;DHT22;30830;53.704;10.004;2023-06-10T02:51:24;12.50;99.90
45066;DHT22;30830;53.704;10.004;2023-06-10T02:53:50;12.50;99.90
45066;DHT22;30830;53.704;10.004;2023-06-10T02:56:16;12.50;99.90
45066;DHT22;30830;53.704;10.004;2023-06-10T02:58:42;12.50;99.90
45066;DHT22;30830;53.704;10.004;2023-06-10T03:01:08;12.50;99.90
45066;DHT22;30830;53.704;10.004;2023-06-10T03:03:35;12.50;99.90
45066;DHT22;30830;53.704;10.004;2023-06-10T03:06:02;12.50;99.90
45066;DHT22;30830;53.704;10.004;2023-06-10T03:08:28;12.50;99.90
45066;DHT22;30830;53.704;10.004;2023-06-10T03:10:53;12.50;99.90
45066;DHT22;30830;53.704;10.004;2023-06-10T03:13:19;12.50;99.90
45066;DHT22;30830;53.704;10.004;2023-06-10T03:15:45;12.40;99.90
45066;DHT22;30830;53.704;10.004;2023-06-10T03:18:11;12.40;99.90
45066;DHT22;30830;53.704;10.004;2023-06-10T03:20:37;12.30;99.90
45066;DHT22;30830;53.704;10.004;2023-06-10T03:23:04;12.30;99.90
45066;DHT22;30830;53.704;10.004;2023-06-10T03:25:31;12.40;99.90
45066;DHT22;30830;53.704;10.004;2023-06-10T03:27:57;12.40;99.90
45066;DHT22;30830;53.704;10.004;2023-06-10T03:30:23;12.40;99.90
45066;DHT22;30830;53.704;10.004;2023-06-10T03:32:48;12.40;99.90
45066;DHT22;30830;53.704;10.004;2023-06-10T03:35:14;12.40;99.90
45066;DHT22;30830;53.704;10.004;2023-06-10T03:37:40;12.40;99.90
45066;DHT22;30830;53.704;10.004;2023-06-10T03:40:07;12.50;99.90
45066;DHT22;30830;53.704;10.004;2023-06-10T03:42:34;12.50;99.90
45066;DHT22;30830;53.704;10.004;2023-06-10T03:45:00;12.50;99.90
45066;DHT22;30830;53.704;10.004;2023-06-10T03:47:26;12.50;99.90
45066;DHT22;30830;53.704;10.004;2023-06-10T03:49:51;12.50;99.90
45066;DHT22;30830;53.704;10.004;2023-06-10T03:52:18;12.60;99.90
45066;DHT22;30830;53.704;10.004;2023-06-10T03:54:43;12.60;99.90
45066;DHT22;30830;53.704;10.004;2023-06-10T03:57:09;12.60;99.90
45066;DHT22;30830;53.704;10.004;2023-06-10T03:59:35;12.60;99.90
45066;DHT22;30830;53.704;10.004;2023-06-10T04:02:00;12.70;99.90
45066;DHT22;30830;53.704;10.004;2023-06-10T04:04:26;12.70;99.90
45066;DHT22;30830;53.704;10.004;2023-06-10T04:06:52;12.70;99.90
45066;DHT22;30830;53.704;10.004;2023-06-10T04:09:18;12.70;99.90
45066;DHT22;30830;53.704;10.004;2023-06-10T04:11:44;12.70;99.90
45066;DHT22;30830;53.704;10.004;2023-06-10T04:14:09;12.80;99.90
45066;DHT22;30830;53.704;10.004;2023-06-10T04:16:35;12.80;99.90
45066;DHT22;30830;53.704;10.004;2023-06-10T04:19:00;12.80;99.90
45066;DHT22;30830;53.704;10.004;2023-06-10T04:21:27;12.80;99.90
45066;DHT22;30830;53.704;10.004;2023-06-10T04:23:53;12.80;99.90
45066;DHT22;30830;53.704;10.004;2023-06-10T04:26:18;12.90;99.90
45066;DHT22;30830;53.704;10.004;2023-06-10T04:28:44;12.90;99.90
45066;DHT22;30830;53.704;10.004;2023-06-10T04:31:10;13.00;99.90
45066;DHT22;30830;53.704;10.004;2023-06-10T04:33:36;13.10;99.90
45066;DHT22;30830;53.704;10.004;2023-06-10T04:36:01;13.10;99.90
45066;DHT22;30830;53.704;10.004;2023-06-10T04:38:27;13.20;99.90
45066;DHT22;30830;53.704;10.004;2023-06-10T04:40:53;13.20;99.90
45066;DHT22;30830;53.704;10.004;2023-06-10T04:43:19;13.30;99.90
45066;DHT22;30830;53.704;10.004;2023-06-10T04:45:44;13.40;99.90
45066;DHT22;30830;53.704;10.004;2023-06-10T04:48:10;13.50;99.90
45066;DHT22;30830;53.704;10.004;2023-06-10T04:50:37;13.50;99.90
45066;DHT22;30830;53.704;10.004;2023-06-10T04:53:02;13.60;99.90
45066;DHT22;30830;53.704;10.004;2023-06-10T04:55:28;13.60;99.90
45066;DHT22;30830;53.704;10.004;2023-06-10T04:57:54;13.70;99.90
45066;DHT22;30830;53.704;10.004;2023-06-10T05:00:20;13.80;99.90
45066;DHT22;30830;53.704;10.004;2023-06-10T05:02:45;13.90;99.90
45066;DHT22;30830;53.704;10.004;2023-06-10T05:05:16;14.10;99.90
45066;DHT22;30830;53.704;10.004;2023-06-10T05:07:41;14.10;99.90
45066;DHT22;30830;53.704;10.004;2023-06-10T05:10:07;14.20;99.90
45066;DHT22;30830;53.704;10.004;2023-06-10T05:12:33;14.30;99.90
45066;DHT22;30830;53.704;10.004;2023-06-10T05:14:58;14.30;99.90
45066;DHT22;30830;53.704;10.004;2023-06-10T05:17:24;14.30;99.90
45066;DHT22;30830;53.704;10.004;2023-06-10T05:19:50;14.40;99.90
45066;DHT22;30830;53.704;10.004;2023-06-10T05:22:16;14.40;99.90
45066;DHT22;30830;53.704;10.004;2023-06-10T05:24:43;14.50;99.90
45066;DHT22;30830;53.704;10.004;2023-06-10T05:27:10;14.50;99.90
45066;DHT22;30830;53.704;10.004;2023-06-10T05:29:35;14.60;99.90
45066;DHT22;30830;53.704;10.004;2023-06-10T05:32:01;14.70;99.90
45066;DHT22;30830;53.704;10.004;2023-06-10T05:34:29;14.70;99.90
45066;DHT22;30830;53.704;10.004;2023-06-10T05:36:55;14.90;99.90
45066;DHT22;30830;53.704;10.004;2023-06-10T05:39:20;14.90;99.90
45066;DHT22;30830;53.704;10.004;2023-06-10T05:41:46;15.10;99.90
45066;DHT22;30830;53.704;10.004;2023-06-10T05:44:12;15.20;99.90
45066;DHT22;30830;53.704;10.004;2023-06-10T05:46:37;15.30;99.90
45066;DHT22;30830;53.704;10.004;2023-06-10T05:49:03;15.50;99.90
45066;DHT22;30830;53.704;10.004;2023-06-10T05:51:28;15.60;99.90
45066;DHT22;30830;53.704;10.004;2023-06-10T05:53:54;15.80;99.90
45066;DHT22;30830;53.704;10.004;2023-06-10T05:56:20;16.00;99.90
45066;DHT22;30830;53.704;10.004;2023-06-10T05:58:48;16.10;99.90
45066;DHT22;30830;53.704;10.004;2023-06-10T06:01:14;16.30;99.90
45066;DHT22;30830;53.704;10.004;2023-06-10T06:03:39;16.40;99.90
45066;DHT22;30830;53.704;10.004;2023-06-10T06:06:05;16.40;99.90
45066;DHT22;30830;53.704;10.004;2023-06-10T06:08:31;16.50;99.90
45066;DHT22;30830;53.704;10.004;2023-06-10T06:10:56;16.60;99.90
45066;DHT22;30830;53.704;10.004;2023-06-10T06:13:22;16.80;99.90
45066;DHT22;30830;53.704;10.004;2023-06-10T06:15:48;16.90;99.90
45066;DHT22;30830;53.704;10.004;2023-06-10T06:18:13;17.10;99.90
45066;DHT22;30830;53.704;10.004;2023-06-10T06:20:39;17.20;99.90
45066;DHT22;30830;53.704;10.004;2023-06-10T06:23:04;17.40;99.90
45066;DHT22;30830;53.704;10.004;2023-06-10T06:25:30;17.50;99.90
45066;DHT22;30830;53.704;10.004;2023-06-10T06:27:55;17.70;99.90
45066;DHT22;30830;53.704;10.004;2023-06-10T06:30:21;17.80;99.90
45066;DHT22;30830;53.704;10.004;2023-06-10T06:32:46;18.00;99.90
45066;DHT22;30830;53.704;10.004;2023-06-10T06:35:12;18.20;99.90
45066;DHT22;30830;53.704;10.004;2023-06-10T06:37:38;18.30;99.90
45066;DHT22;30830;53.704;10.004;2023-06-10T06:40:03;18.50;99.90
45066;DHT22;30830;53.704;10.004;2023-06-10T06:42:29;18.60;99.90
45066;DHT22;30830;53.704;10.004;2023-06-10T06:44:55;18.70;99.90
45066;DHT22;30830;53.704;10.004;2023-06-10T06:47:20;18.70;99.90
45066;DHT22;30830;53.704;10.004;2023-06-10T06:49:46;18.90;99.90
45066;DHT22;30830;53.704;10.004;2023-06-10T06:52:13;19.00;99.90
45066;DHT22;30830;53.704;10.004;2023-06-10T06:54:38;19.10;99.90
45066;DHT22;30830;53.704;10.004;2023-06-10T06:57:04;19.20;99.90
45066;DHT22;30830;53.704;10.004;2023-06-10T06:59:31;19.10;99.90
45066;DHT22;30830;53.704;10.004;2023-06-10T07:01:56;18.90;99.90
45066;DHT22;30830;53.704;10.004;2023-06-10T07:04:22;19.20;99.90
45066;DHT22;30830;53.704;10.004;2023-06-10T07:06:48;19.30;99.90
45066;DHT22;30830;53.704;10.004;2023-06-10T07:09:13;19.50;99.90
45066;DHT22;30830;53.704;10.004;2023-06-10T07:11:39;19.50;99.90
45066;DHT22;30830;53.704;10.004;2023-06-10T07:14:06;19.40;99.90
45066;DHT22;30830;53.704;10.004;2023-06-10T07:16:32;19.50;99.90
45066;DHT22;30830;53.704;10.004;2023-06-10T07:18:57;19.70;99.90
45066;DHT22;30830;53.704;10.004;2023-06-10T07:21:23;19.80;99.90
45066;DHT22;30830;53.704;10.004;2023-06-10T07:23:49;20.00;99.90
45066;DHT22;30830;53.704;10.004;2023-06-10T07:26:17;20.10;99.90
45066;DHT22;30830;53.704;10.004;2023-06-10T07:28:43;20.20;99.90
45066;DHT22;30830;53.704;10.004;2023-06-10T07:31:09;20.30;99.90
45066;DHT22;30830;53.704;10.004;2023-06-10T07:33:34;20.50;99.90
45066;DHT22;30830;53.704;10.004;2023-06-10T07:36:00;20.60;99.90
45066;DHT22;30830;53.704;10.004;2023-06-10T07:38:26;20.70;99.90
45066;DHT22;30830;53.704;10.004;2023-06-10T07:40:52;20.80;99.90
45066;DHT22;30830;53.704;10.004;2023-06-10T07:43:18;20.90;99.90
45066;DHT22;30830;53.704;10.004;2023-06-10T07:45:44;21.10;99.90
45066;DHT22;30830;53.704;10.004;2023-06-10T07:48:10;21.30;99.90
45066;DHT22;30830;53.704;10.004;2023-06-10T07:50:36;21.30;99.90
45066;DHT22;30830;53.704;10.004;2023-06-10T07:53:01;21.40;99.90
45066;DHT22;30830;53.704;10.004;2023-06-10T07:55:27;21.40;99.90
45066;DHT22;30830;53.704;10.004;2023-06-10T07:57:53;21.40;99.90
45066;DHT22;30830;53.704;10.004;2023-06-10T08:00:19;21.50;99.90
45066;DHT22;30830;53.704;10.004;2023-06-10T08:02:46;21.60;99.90
45066;DHT22;30830;53.704;10.004;2023-06-10T08:05:11;21.60;99.90
45066;DHT22;30830;53.704;10.004;2023-06-10T08:07:37;21.70;99.90
45066;DHT22;30830;53.704;10.004;2023-06-10T08:10:03;21.80;99.90
45066;DHT22;30830;53.704;10.004;2023-06-10T08:12:29;21.90;99.90
45066;DHT22;30830;53.704;10.004;2023-06-10T08:14:55;22.10;99.90
45066;DHT22;30830;53.704;10.004;2023-06-10T08:17:21;22.30;99.90
45066;DHT22;30830;53.704;10.004;2023-06-10T08:19:47;22.40;99.90
45066;DHT22;30830;53.704;10.004;2023-06-10T08:22:12;22.60;99.90
45066;DHT22;30830;53.704;10.004;2023-06-10T08:24:38;22.60;99.90
45066;DHT22;30830;53.704;10.004;2023-06-10T08:27:04;22.80;99.90
45066;DHT22;30830;53.704;10.004;2023-06-10T08:29:29;22.70;99.90
45066;DHT22;30830;53.704;10.004;2023-06-10T08:31:58;22.60;99.90
45066;DHT22;30830;53.704;10.004;2023-06-10T08:34:24;22.60;99.90
45066;DHT22;30830;53.704;10.004;2023-06-10T08:36:49;22.20;99.90
45066;DHT22;30830;53.704;10.004;2023-06-10T08:39:21;22.30;99.90
45066;DHT22;30830;53.704;10.004;2023-06-10T08:42:28;22.30;99.90
45066;DHT22;30830;53.704;10.004;2023-06-10T08:45:01;22.70;99.90
45066;DHT22;30830;53.704;10.004;2023-06-10T08:47:29;22.80;99.90
45066;DHT22;30830;53.704;10.004;2023-06-10T08:49:57;22.90;99.90
45066;DHT22;30830;53.704;10.004;2023-06-10T08:52:29;23.10;99.90
45066;DHT22;30830;53.704;10.004;2023-06-10T08:55:27;23.10;99.90
45066;DHT22;30830;53.704;10.004;2023-06-10T08:57:54;22.80;99.90
45066;DHT22;30830;53.704;10.004;2023-06-10T09:00:21;22.80;99.90
45066;DHT22;30830;53.704;10.004;2023-06-10T09:02:47;23.00;99.90
45066;DHT22;30830;53.704;10.004;2023-06-10T09:05:13;23.10;99.90
45066;DHT22;30830;53.704;10.004;2023-06-10T09:07:39;23.20;99.90
45066;DHT22;30830;53.704;10.004;2023-06-10T09:10:05;23.30;99.90
45066;DHT22;30830;53.704;10.004;2023-06-10T09:12:33;23.40;99.80
45066;DHT22;30830;53.704;10.004;2023-06-10T09:15:00;23.50;99.40
45066;DHT22;30830;53.704;10.004;2023-06-10T09:17:26;23.30;99.90
45066;DHT22;30830;53.704;10.004;2023-06-10T09:19:52;23.30;99.90
45066;DHT22;30830;53.704;10.004;2023-06-10T09:22:21;23.60;99.90
45066;DHT22;30830;53.704;10.004;2023-06-10T09:24:47;23.80;99.40
45066;DHT22;30830;53.704;10.004;2023-06-10T09:27:13;23.80;99.40
45066;DHT22;30830;53.704;10.004;2023-06-10T09:29:52;23.80;99.80
45066;DHT22;30830;53.704;10.004;2023-06-10T09:32:18;23.80;99.40
45066;DHT22;30830;53.704;10.004;2023-06-10T09:34:44;23.70;99.50
45066;DHT22;30830;53.704;10.004;2023-06-10T09:37:10;23.90;99.80
45066;DHT22;30830;53.704;10.004;2023-06-10T09:39:38;24.00;99.70
45066;DHT22;30830;53.704;10.004;2023-06-10T09:42:16;24.00;99.40
45066;DHT22;30830;53.704;10.004;2023-06-10T09:44:42;24.10;99.80
45066;DHT22;30830;53.704;10.004;2023-06-10T09:47:23;24.00;99.00
45066;DHT22;30830;53.704;10.004;2023-06-10T09:49:49;23.70;99.70
45066;DHT22;30830;53.704;10.004;2023-06-10T09:52:28;23.80;99.60
45066;DHT22;30830;53.704;10.004;2023-06-10T09:55:02;23.70;99.90
45066;DHT22;30830;53.704;10.004;2023-06-10T09:57:32;23.30;99.90
45066;DHT22;30830;53.704;10.004;2023-06-10T09:59:58;23.00;99.90
45066;DHT22;30830;53.704;10.004;2023-06-10T10:02:24;23.10;99.90
45066;DHT22;30830;53.704;10.004;2023-06-10T10:04:49;23.30;99.90
45066;DHT22;30830;53.704;10.004;2023-06-10T10:07:15;23.30;99.90
45066;DHT22;30830;53.704;10.004;2023-06-10T10:09:41;23.20;99.90
45066;DHT22;30830;53.704;10.004;2023-06-10T10:12:12;23.20;99.90
45066;DHT22;30830;53.704;10.004;2023-06-10T10:14:39;23.30;99.90
45066;DHT22;30830;53.704;10.004;2023-06-10T10:17:10;23.30;99.90
45066;DHT22;30830;53.704;10.004;2023-06-10T10:19:43;23.30;99.90
45066;DHT22;30830;53.704;10.004;2023-06-10T10:22:24;23.20;99.90
45066;DHT22;30830;53.704;10.004;2023-06-10T10:24:52;23.10;99.90
45066;DHT22;30830;53.704;10.004;2023-06-10T10:27:25;23.00;99.90
45066;DHT22;30830;53.704;10.004;2023-06-10T10:29:52;23.00;99.90
45066;DHT22;30830;53.704;10.004;2023-06-10T10:32:21;23.10;99.90
45066;DHT22;30830;53.704;10.004;2023-06-10T10:35:12;23.20;99.90
45066;DHT22;30830;53.704;10.004;2023-06-10T10:37:39;23.30;99.90
45066;DHT22;30830;53.704;10.004;2023-06-10T10:40:06;23.40;99.90
45066;DHT22;30830;53.704;10.004;2023-06-10T10:42:32;23.60;99.90
45066;DHT22;30830;53.704;10.004;2023-06-10T10:44:59;23.60;99.90
45066;DHT22;30830;53.704;10.004;2023-06-10T10:47:27;23.50;99.90
45066;DHT22;30830;53.704;10.004;2023-06-10T10:49:54;23.60;99.90
45066;DHT22;30830;53.704;10.004;2023-06-10T10:52:21;23.70;99.90
45066;DHT22;30830;53.704;10.004;2023-06-10T10:54:47;23.80;99.90
45066;DHT22;30830;53.704;10.004;2023-06-10T10:57:18;23.80;99.90
45066;DHT22;30830;53.704;10.004;2023-06-10T10:59:44;23.70;99.90
45066;DHT22;30830;53.704;10.004;2023-06-10T11:02:11;23.70;99.90
45066;DHT22;30830;53.704;10.004;2023-06-10T11:04:45;23.70;99.90
45066;DHT22;30830;53.704;10.004;2023-06-10T11:07:11;23.70;99.90
45066;DHT22;30830;53.704;10.004;2023-06-10T11:10:05;23.80;99.90
45066;DHT22;30830;53.704;10.004;2023-06-10T11:15:07;23.70;99.90
45066;DHT22;30830;53.704;10.004;2023-06-10T11:17:33;23.80;99.90
45066;DHT22;30830;53.704;10.004;2023-06-10T11:19:59;23.80;99.90
45066;DHT22;30830;53.704;10.004;2023-06-10T11:22:25;23.90;99.90
45066;DHT22;30830;53.704;10.004;2023-06-10T11:24:51;23.90;99.90
45066;DHT22;30830;53.704;10.004;2023-06-10T11:32:23;23.90;99.90
45066;DHT22;30830;53.704;10.004;2023-06-10T11:34:53;23.80;99.90
45066;DHT22;30830;53.704;10.004;2023-06-10T11:37:19;23.90;99.90
45066;DHT22;30830;53.704;10.004;2023-06-10T11:39:45;23.80;99.90
45066;DHT22;30830;53.704;10.004;2023-06-10T11:42:11;23.90;99.90
45066;DHT22;30830;53.704;10.004;2023-06-10T11:44:37;23.90;99.90
45066;DHT22;30830;53.704;10.004;2023-06-10T11:47:03;23.80;99.90
45066;DHT22;30830;53.704;10.004;2023-06-10T11:49:29;23.90;99.90
45066;DHT22;30830;53.704;10.004;2023-06-10T11:51:54;24.00;99.90
45066;DHT22;30830;53.704;10.004;2023-06-10T11:54:20;24.10;99.90
45066;DHT22;30830;53.704;10.004;2023-06-10T11:56:47;24.20;99.90
45066;DHT22;30830;53.704;10.004;2023-06-10T11:59:13;24.30;99.90
45066;DHT22;30830;53.704;10.004;2023-06-10T12:01:45;24.30;99.90
45066;DHT22;30830;53.704;10.004;2023-06-10T12:04:13;24.20;99.90
45066;DHT22;30830;53.704;10.004;2023-06-10T12:06:39;24.20;99.90
45066;DHT22;30830;53.704;10.004;2023-06-10T12:09:06;24.40;99.90
45066;DHT22;30830;53.704;10.004;2023-06-10T12:11:33;24.50;99.90
45066;DHT22;30830;53.704;10.004;2023-06-10T12:13:59;24.60;99.90
45066;DHT22;30830;53.704;10.004;2023-06-10T12:16:24;24.70;99.50
45066;DHT22;30830;53.704;10.004;2023-06-10T12:18:50;24.80;99.60
45066;DHT22;30830;53.704;10.004;2023-06-10T12:21:17;24.90;99.00
45066;DHT22;30830;53.704;10.004;2023-06-10T12:24:08;24.90;99.40
45066;DHT22;30830;53.704;10.004;2023-06-10T12:29:07;25.10;99.50
45066;DHT22;30830;53.704;10.004;2023-06-10T12:31:59;25.00;99.10
45066;DHT22;30830;53.704;10.004;2023-06-10T12:34:33;25.10;98.50
45066;DHT22;30830;53.704;10.004;2023-06-10T12:37:00;25.20;98.90
45066;DHT22;30830;53.704;10.004;2023-06-10T12:39:26;25.20;99.00
45066;DHT22;30830;53.704;10.004;2023-06-10T12:41:53;25.30;98.60
45066;DHT22;30830;53.704;10.004;2023-06-10T12:44:27;25.40;98.50
45066;DHT22;30830;53.704;10.004;2023-06-10T12:46:56;25.50;97.90
45066;DHT22;30830;53.704;10.004;2023-06-10T12:49:22;25.60;98.30
45066;DHT22;30830;53.704;10.004;2023-06-10T12:51:48;25.60;98.40
45066;DHT22;30830;53.704;10.004;2023-06-10T12:54:13;25.70;97.90
45066;DHT22;30830;53.704;10.004;2023-06-10T12:56:39;25.90;98.10
45066;DHT22;30830;53.704;10.004;2023-06-10T12:59:05;26.00;98.20
45066;DHT22;30830;53.704;10.004;2023-06-10T13:01:31;26.10;97.60
45066;DHT22;30830;53.704;10.004;2023-06-10T13:03:57;26.20;97.20
45066;DHT22;30830;53.704;10.004;2023-06-10T13:06:23;26.30;97.40
45066;DHT22;30830;53.704;10.004;2023-06-10T13:08:48;26.30;97.20
45066;DHT22;30830;53.704;10.004;2023-06-10T13:11:14;26.40;97.00
45066;DHT22;30830;53.704;10.004;2023-06-10T13:13:39;26.40;96.90
45066;DHT22;30830;53.704;10.004;2023-06-10T13:16:05;26.40;97.10
45066;DHT22;30830;53.704;10.004;2023-06-10T13:18:32;26.50;96.70
45066;DHT22;30830;53.704;10.004;2023-06-10T13:21:05;26.30;97.30
45066;DHT22;30830;53.704;10.004;2023-06-10T13:23:31;26.40;97.10
45066;DHT22;30830;53.704;10.004;2023-06-10T13:25:57;26.40;96.50
45066;DHT22;30830;53.704;10.004;2023-06-10T13:28:23;26.50;97.00
45066;DHT22;30830;53.704;10.004;2023-06-10T13:30:49;26.50;96.30
45066;DHT22;30830;53.704;10.004;2023-06-10T13:33:15;26.60;96.30
45066;DHT22;30830;53.704;10.004;2023-06-10T13:35:40;26.60;95.90
45066;DHT22;30830;53.704;10.004;2023-06-10T13:38:06;26.60;96.00
45066;DHT22;30830;53.704;10.004;2023-06-10T13:40:32;26.60;96.20
45066;DHT22;30830;53.704;10.004;2023-06-10T13:42:58;26.60;96.00
45066;DHT22;30830;53.704;10.004;2023-06-10T13:45:24;26.60;95.90
45066;DHT22;30830;53.704;10.004;2023-06-10T13:47:50;26.50;96.30
45066;DHT22;30830;53.704;10.004;2023-06-10T13:50:16;26.30;96.60
45066;DHT22;30830;53.704;10.004;2023-06-10T13:52:41;26.40;96.80
45066;DHT22;30830;53.704;10.004;2023-06-10T13:55:07;26.60;96.00
45066;DHT22;30830;53.704;10.004;2023-06-10T13:57:33;26.60;95.80
45066;DHT22;30830;53.704;10.004;2023-06-10T13:59:58;26.70;96.10
45066;DHT22;30830;53.704;10.004;2023-06-10T14:02:24;26.80;96.00
45066;DHT22;30830;53.704;10.004;2023-06-10T14:04:49;26.80;95.10
45066;DHT22;30830;53.704;10.004;2023-06-10T14:07:15;26.50;95.30
45066;DHT22;30830;53.704;10.004;2023-06-10T14:09:40;26.30;95.80
45066;DHT22;30830;53.704;10.004;2023-06-10T14:12:06;26.20;96.00
45066;DHT22;30830;53.704;10.004;2023-06-10T14:14:32;26.30;95.50
45066;DHT22;30830;53.704;10.004;2023-06-10T14:16:58;26.40;95.50
45066;DHT22;30830;53.704;10.004;2023-06-10T14:19:24;26.40;95.60
45066;DHT22;30830;53.704;10.004;2023-06-10T14:21:50;26.50;94.90
45066;DHT22;30830;53.704;10.004;2023-06-10T14:24:15;26.40;95.40
45066;DHT22;30830;53.704;10.004;2023-06-10T14:26:41;26.50;95.50
45066;DHT22;30830;53.704;10.004;2023-06-10T14:29:07;26.50;94.90
45066;DHT22;30830;53.704;10.004;2023-06-10T14:31:34;26.40;94.90
45066;DHT22;30830;53.704;10.004;2023-06-10T14:33:59;26.30;95.00
45066;DHT22;30830;53.704;10.004;2023-06-10T14:36:25;26.30;94.80
45066;DHT22;30830;53.704;10.004;2023-06-10T14:38:51;26.30;94.80
45066;DHT22;30830;53.704;10.004;2023-06-10T14:41:16;26.40;95.20
45066;DHT22;30830;53.704;10.004;2023-06-10T14:43:42;26.30;94.80
45066;DHT22;30830;53.704;10.004;2023-06-10T14:46:08;26.30;94.70
45066;DHT22;30830;53.704;10.004;2023-06-10T14:48:33;26.30;94.70
45066;DHT22;30830;53.704;10.004;2023-06-10T14:50:59;26.30;95.40
45066;DHT22;30830;53.704;10.004;2023-06-10T14:53:25;26.30;94.70
45066;DHT22;30830;53.704;10.004;2023-06-10T14:55:50;26.30;94.80
45066;DHT22;30830;53.704;10.004;2023-06-10T14:58:16;26.30;95.10
45066;DHT22;30830;53.704;10.004;2023-06-10T15:00:41;26.20;94.80
45066;DHT22;30830;53.704;10.004;2023-06-10T15:03:07;26.20;95.00
45066;DHT22;30830;53.704;10.004;2023-06-10T15:05:32;25.90;94.90
45066;DHT22;30830;53.704;10.004;2023-06-10T15:08:00;25.90;94.80
45066;DHT22;30830;53.704;10.004;2023-06-10T15:10:25;25.90;94.50
45066;DHT22;30830;53.704;10.004;2023-06-10T15:12:51;25.90;94.80
45066;DHT22;30830;53.704;10.004;2023-06-10T15:15:25;25.90;94.70
45066;DHT22;30830;53.704;10.004;2023-06-10T15:17:52;25.80;94.80
45066;DHT22;30830;53.704;10.004;2023-06-10T15:20:18;25.80;95.10
45066;DHT22;30830;53.704;10.004;2023-06-10T15:22:43;25.80;95.30
45066;DHT22;30830;53.704;10.004;2023-06-10T15:25:09;25.90;95.00
45066;DHT22;30830;53.704;10.004;2023-06-10T15:27:34;25.90;94.60
45066;DHT22;30830;53.704;10.004;2023-06-10T15:30:01;26.00;94.40